Time;durP1;ratioP1;P1;durP2;ratioP2;P2;SDS_P1;SDS_P2;PMS_P1;PMS_P2;Temp;Humidity;BMP_temperature;BMP_pressure;BME280_temperature;BME280_humidity;BME280_pressure;Samples;Min_cycle;Max_cycle;Signal;HPM_P1;HPM_P2
2021/09/23 00:00:49;;;;;;;;;;;;;;;-144.99;100.00;52403.25;5066122;28;20183;-74
2021/09/23 00:03:31;;;;;;;;;;;;;;;-144.99;100.00;52433.81;5070141;28;20353;-73
2021/09/23 00:06:01;;;;;;;;;;;;;;;-144.99;100.00;52407.31;5071799;28;19978;-74
2021/09/23 00:08:28;;;;;;;;;;;;;;;-144.99;100.00;52444.03;5065919;28;19928;-73
2021/09/23 00:10:54;;;;;;;;;;;;;;;-144.99;100.00;52403.25;5072256;28;20781;-74
2021/09/23 00:13:23;;;;;;;;;;;;;;;-144.99;100.00;52415.47;5067892;28;19985;-75
2021/09/23 00:15:50;;;;;;;;;;;;;;;-144.99;100.00;52437.91;5082964;28;19994;-75
2021/09/23 00:18:17;;;;;;;;;;;;;;;-144.99;100.00;52464.41;5071180;28;20044;-75
2021/09/23 00:20:45;;;;;;;;;;;;;;;-144.99;100.00;52448.09;5066182;28;20001;-75
2021/09/23 00:23:12;;;;;;;;;;;;;;;-144.99;100.00;52464.41;5065122;28;20024;-76
2021/09/23 00:25:38;;;;;;;;;;;;;;;-144.99;100.00;52431.78;5068716;28;20075;-71
2021/09/23 00:28:06;;;;;;;;;;;;;;;-144.99;100.00;52407.31;5064017;28;20452;-74
2021/09/23 00:30:34;;;;;;;;;;;;;;;-144.99;100.00;52419.56;5073134;28;20423;-76
2021/09/23 00:33:01;;;;;;;;;;;;;;;-144.99;100.00;52427.72;5066543;28;19979;-77
2021/09/23 00:35:27;;;;;;;;;;;;;;;-144.99;100.00;52439.94;5073046;28;19991;-76
2021/09/23 00:37:53;;;;;;;;;;;;;;;-144.99;100.00;52448.09;5066913;28;19994;-75
2021/09/23 00:40:20;;;;;;;;;;;;;;;-144.99;100.00;52431.78;5066803;28;19987;-76
2021/09/23 00:42:48;;;;;;;;;;;;;;;-144.99;100.00;52415.47;5085375;22;19976;-77
2021/09/23 00:45:16;;;;;;;;;;;;;;;-144.99;100.00;52468.47;5084182;28;20017;-77
2021/09/23 00:47:44;;;;;;;;;;;;;;;-144.99;100.00;52395.09;5078867;28;20069;-76
2021/09/23 00:50:11;;;;;;;;;;;;;;;-144.99;100.00;52399.19;5081956;28;20461;-76
2021/09/23 00:52:38;;;;;;;;;;;;;;;-144.99;100.00;52435.88;5087337;28;19995;-74
2021/09/23 00:55:05;;;;;;;;;;;;;;;-144.99;100.00;52439.94;5081315;28;19993;-75
2021/09/23 00:57:32;;;;;;;;;;;;;;;-144.99;100.00;52407.31;5083510;28;20502;-75
2021/09/23 00:59:59;;;;;;;;;;;;;;;-144.99;100.00;52395.09;5085146;28;20481;-74
2021/09/23 01:02:25;;;;;;;;;;;;;;;-144.99;100.00;52456.25;5078461;28;20051;-74
2021/09/23 01:04:53;;;;;;;;;;;;;;;-144.99;100.00;52431.78;5086597;28;19971;-74
2021/09/23 01:07:20;;;;;;;;;;;;;;;-144.99;100.00;52460.31;5086190;28;20071;-75
2021/09/23 01:09:48;;;;;;;;;;;;;;;-144.99;100.00;52386.94;5085944;28;19978;-75
2021/09/23 01:12:15;;;;;;;;;;;;;;;-144.99;100.00;52407.31;5078772;28;19990;-75
2021/09/23 01:14:42;;;;;;;;;;;;;;;-144.99;100.00;52456.25;5087413;28;20064;-75
2021/09/23 01:17:08;;;;;;;;;;;;;;;-144.99;100.00;52431.78;5082649;28;19984;-74
2021/09/23 01:19:35;;;;;;;;;;;;;;;-144.99;100.00;52427.72;5088463;28;20069;-75
2021/09/23 01:22:03;;;;;;;;;;;;;;;-144.99;100.00;52444.03;5085044;28;20017;-75
2021/09/23 01:24:29;;;;;;;;;;;;;;;-144.99;100.00;52415.47;5090043;28;19978;-73
2021/09/23 01:26:56;;;;;;;;;;;;;;;-144.99;100.00;52435.88;5087958;28;19971;-74
2021/09/23 01:29:23;;;;;;;;;;;;;;;-144.99;100.00;52474.59;5090252;28;19982;-74
2021/09/23 01:31:49;;;;;;;;;;;;;;;-144.99;100.00;52427.72;5090027;28;19998;-74
2021/09/23 01:34:16;;;;;;;;;;;;;;;-144.99;100.00;52431.78;5089629;28;19976;-74
2021/09/23 01:36:42;;;;;;;;;;;;;;;-144.99;100.00;52431.78;5083922;28;20026;-75
2021/09/23 01:39:10;;;;;;;;;;;;;;;-144.99;100.00;52419.56;5084580;28;20366;-75
2021/09/23 01:41:37;;;;;;;;;;;;;;;-144.99;100.00;52464.41;5082684;28;20040;-75
2021/09/23 01:44:03;;;;;;;;;;;;;;;-144.99;100.00;52419.56;5088947;28;19974;-75
2021/09/23 01:46:30;;;;;;;;;;;;;;;-144.99;100.00;52427.72;5091552;28;19974;-75
2021/09/23 01:48:56;;;;;;;;;;;;;;;-144.99;100.00;52458.28;5095168;28;19975;-73
2021/09/23 01:51:22;;;;;;;;;;;;;;;-144.99;100.00;52484.78;5088715;28;20428;-75
2021/09/23 01:53:49;;;;;;;;;;;;;;;-144.99;100.00;52407.31;5092138;28;19981;-75
2021/09/23 01:56:16;;;;;;;;;;;;;;;-144.99;100.00;52437.91;5085686;28;19992;-74
2021/09/23 01:58:43;;;;;;;;;;;;;;;-144.99;100.00;52444.03;5083063;28;19971;-75
2021/09/23 02:01:09;;;;;;;;;;;;;;;-144.99;100.00;52452.16;5088438;28;19984;-74
2021/09/23 02:03:36;;;;;;;;;;;;;;;-144.99;100.00;52431.78;5090671;28;20077;-75
2021/09/23 02:06:02;;;;;;;;;;;;;;;-144.99;100.00;52427.72;5090179;28;19979;-73
2021/09/23 02:08:29;;;;;;;;;;;;;;;-144.99;100.00;52431.78;5086349;28;20007;-74
2021/09/23 02:10:55;;;;;;;;;;;;;;;-144.99;100.00;52435.88;5079254;28;20065;-74
2021/09/23 02:13:23;;;;;;;;;;;;;;;-144.99;100.00;52415.47;5090131;28;20563;-75
2021/09/23 02:15:49;;;;;;;;;;;;;;;-144.99;100.00;52411.41;5089954;28;19981;-75
2021/09/23 02:18:15;;;;;;;;;;;;;;;-144.99;100.00;52407.31;5082195;28;19981;-75
2021/09/23 02:20:42;;;;;;;;;;;;;;;-144.99;100.00;52476.63;5079888;28;19982;-75
2021/09/23 02:23:09;;;;;;;;;;;;;;;-144.99;100.00;52464.41;5088087;28;20017;-76
2021/09/23 02:25:35;;;;;;;;;;;;;;;-144.99;100.00;52393.06;5070671;28;19988;-76
2021/09/23 02:28:02;;;;;;;;;;;;;;;-144.99;100.00;52421.59;5086639;28;20433;-75
2021/09/23 02:30:29;;;;;;;;;;;;;;;-144.99;100.00;52435.88;5076005;28;19986;-75
2021/09/23 02:32:56;;;;;;;;;;;;;;;-144.99;100.00;52427.72;5085097;28;19996;-75
2021/09/23 02:35:23;;;;;;;;;;;;;;;-144.99;100.00;52456.25;5089606;28;19979;-75
2021/09/23 02:37:49;;;;;;;;;;;;;;;-144.99;100.00;52423.63;5088229;28;19978;-75
2021/09/23 02:40:16;;;;;;;;;;;;;;;-144.99;100.00;52431.78;5086709;28;19979;-75
2021/09/23 02:42:43;;;;;;;;;;;;;;;-144.99;100.00;52456.25;5082456;28;20233;-75
2021/09/23 02:45:10;;;;;;;;;;;;;;;-144.99;100.00;52431.78;5089199;28;20081;-74
2021/09/23 02:47:38;;;;;;;;;;;;;;;-144.99;100.00;52413.44;5086528;28;19972;-75
2021/09/23 02:50:05;;;;;;;;;;;;;;;-144.99;100.00;52427.72;5090172;28;19982;-74
2021/09/23 02:52:32;;;;;;;;;;;;;;;-144.99;100.00;52441.97;5090808;28;19998;-75
2021/09/23 02:54:58;;;;;;;;;;;;;;;-144.99;100.00;52444.03;5095347;28;20078;-74
2021/09/23 02:57:25;;;;;;;;;;;;;;;-144.99;100.00;52431.78;5084899;28;19993;-73
2021/09/23 02:59:51;;;;;;;;;;;;;;;-144.99;100.00;52431.78;5086396;28;20002;-73
2021/09/23 03:02:18;;;;;;;;;;;;;;;-144.99;100.00;52407.31;5087824;28;19995;-73
2021/09/23 03:04:45;;;;;;;;;;;;;;;-144.99;100.00;52431.78;5074589;28;19979;-73
2021/09/23 03:07:12;;;;;;;;;;;;;;;-144.99;100.00;52448.09;5085572;28;20456;-72
2021/09/23 03:09:38;;;;;;;;;;;;;;;-144.99;100.00;52448.09;5076322;28;19995;-73
2021/09/23 03:12:05;;;;;;;;;;;;;;;-144.99;100.00;52435.88;5073419;28;20155;-72
2021/09/23 03:14:31;;;;;;;;;;;;;;;-144.99;100.00;52423.63;5089196;28;20420;-73
2021/09/23 03:16:58;;;;;;;;;;;;;;;-144.99;100.00;52403.25;5085729;28;19996;-75
2021/09/23 03:19:26;;;;;;;;;;;;;;;-144.99;100.00;52419.56;5085307;28;20041;-74
2021/09/23 03:21:54;;;;;;;;;;;;;;;-144.99;100.00;52417.53;5093773;28;20032;-74
2021/09/23 03:24:21;;;;;;;;;;;;;;;-144.99;100.00;52407.31;5094394;28;20061;-74
2021/09/23 03:26:47;;;;;;;;;;;;;;;-144.99;100.00;52419.56;5093246;28;20100;-73
2021/09/23 03:29:15;;;;;;;;;;;;;;;-144.99;100.00;52415.47;5090487;28;19988;-73
2021/09/23 03:31:41;;;;;;;;;;;;;;;-144.99;100.00;52413.44;5092896;28;20051;-74
2021/09/23 03:34:08;;;;;;;;;;;;;;;-144.99;99.92;52433.81;5095779;28;19984;-74
2021/09/23 03:36:34;;;;;;;;;;;;;;;-144.99;100.00;52421.59;5093364;28;19991;-74
2021/09/23 03:39:03;;;;;;;;;;;;;;;-144.99;100.00;52456.25;5090486;28;20065;-74
2021/09/23 03:41:30;;;;;;;;;;;;;;;-144.99;100.00;52413.44;5078480;28;20035;-74
2021/09/23 03:43:56;;;;;;;;;;;;;;;-144.99;100.00;52417.53;5087452;28;20368;-73
2021/09/23 03:46:23;;;;;;;;;;;;;;;-144.99;100.00;52427.72;5088385;28;19978;-74
2021/09/23 03:48:49;;;;;;;;;;;;;;;-144.99;100.00;52431.78;5085642;28;19970;-73
2021/09/23 03:51:16;;;;;;;;;;;;;;;-144.99;100.00;52492.94;5086021;28;19999;-75
2021/09/23 03:53:42;;;;;;;;;;;;;;;-144.99;100.00;52403.25;5081900;28;20399;-74
2021/09/23 03:56:13;;;;;;;;;;;;;;;-144.99;100.00;52480.72;5086512;28;20000;-73
2021/09/23 03:58:39;;;;;;;;;;;;;;;-144.99;100.00;52391.03;5089294;28;20466;-73
2021/09/23 04:01:06;;;;;;;;;;;;;;;-144.99;99.77;52431.78;5088512;28;20017;-73
2021/09/23 04:03:32;;;;;;;;;;;;;;;-144.99;99.65;52403.25;5093515;28;19994;-73
2021/09/23 04:05:59;;;;;;;;;;;;;;;-144.99;99.56;52448.09;5096981;28;20056;-74
2021/09/23 04:08:25;;;;;;;;;;;;;;;-144.99;99.78;52413.44;5092506;28;19992;-74
2021/09/23 04:10:52;;;;;;;;;;;;;;;-144.99;99.68;52419.56;5079663;28;20018;-74
2021/09/23 04:13:19;;;;;;;;;;;;;;;-144.99;99.77;52488.84;5091497;28;20078;-71
2021/09/23 04:15:48;;;;;;;;;;;;;;;-144.99;99.56;52435.88;5081992;28;19981;-73
2021/09/23 04:18:17;;;;;;;;;;;;;;;-144.99;99.17;52411.41;5085720;28;20073;-73
2021/09/23 04:20:44;;;;;;;;;;;;;;;-144.99;98.80;52407.31;5082225;28;20366;-74
2021/09/23 04:23:10;;;;;;;;;;;;;;;-144.99;98.71;52433.81;5088756;28;20448;-73
2021/09/23 04:25:37;;;;;;;;;;;;;;;-144.99;98.79;52460.31;5089649;28;20531;-73
2021/09/23 04:28:03;;;;;;;;;;;;;;;-144.99;98.40;52423.63;5092732;28;19981;-73
2021/09/23 04:30:31;;;;;;;;;;;;;;;-144.99;98.21;52439.94;5087578;28;20013;-74
2021/09/23 04:32:57;;;;;;;;;;;;;;;-144.99;97.60;52431.78;5084111;28;20253;-72
2021/09/23 04:35:24;;;;;;;;;;;;;;;-144.99;97.46;52407.31;5091362;28;19982;-73
2021/09/23 04:37:50;;;;;;;;;;;;;;;-144.99;97.04;52427.72;5090005;28;19994;-74
2021/09/23 04:40:17;;;;;;;;;;;;;;;-144.99;97.01;52441.97;5078552;28;20000;-72
2021/09/23 04:42:44;;;;;;;;;;;;;;;-144.99;97.14;52395.09;5077362;28;19990;-71
2021/09/23 04:45:11;;;;;;;;;;;;;;;-144.99;97.17;52439.94;5089567;28;20303;-73
2021/09/23 04:47:39;;;;;;;;;;;;;;;-144.99;96.74;52423.63;5091120;28;20073;-73
2021/09/23 04:50:06;;;;;;;;;;;;;;;-144.99;96.69;52448.09;5091677;28;19984;-73
2021/09/23 04:52:32;;;;;;;;;;;;;;;-144.99;96.59;52407.31;5086328;28;19993;-73
2021/09/23 04:54:59;;;;;;;;;;;;;;;-144.99;96.81;52421.59;5093350;28;20005;-73
2021/09/23 04:57:25;;;;;;;;;;;;;;;-144.99;96.87;52452.16;5090373;28;19994;-73
2021/09/23 04:59:51;;;;;;;;;;;;;;;-144.99;96.91;52435.88;5091641;28;19985;-75
2021/09/23 05:02:21;;;;;;;;;;;;;;;-144.99;96.92;52439.94;5076153;28;20012;-72
2021/09/23 05:04:49;;;;;;;;;;;;;;;-144.99;96.54;52470.50;5083118;28;19975;-74
2021/09/23 05:07:16;;;;;;;;;;;;;;;-144.99;96.38;52427.72;5091454;28;19981;-73
2021/09/23 05:09:43;;;;;;;;;;;;;;;-144.99;95.94;52423.63;5090581;28;20016;-75
2021/09/23 05:12:10;;;;;;;;;;;;;;;-144.99;96.17;52427.72;5083517;28;20488;-75
2021/09/23 05:14:36;;;;;;;;;;;;;;;-144.99;96.09;52419.56;4033534;28;10000891;-75
2021/09/23 05:17:07;;;;;;;;;;;;;;;-144.99;96.33;52448.09;5085986;28;19990;-74
2021/09/23 05:19:33;;;;;;;;;;;;;;;-144.99;96.63;52456.25;5085803;28;20455;-74
2021/09/23 05:22:01;;;;;;;;;;;;;;;-144.99;96.38;52456.25;5091807;28;20113;-73
2021/09/23 05:24:27;;;;;;;;;;;;;;;-144.99;96.55;52419.56;5090299;28;19996;-74
2021/09/23 05:26:54;;;;;;;;;;;;;;;-144.99;96.80;52448.09;5094035;28;19978;-75
2021/09/23 05:29:20;;;;;;;;;;;;;;;-144.99;96.77;52427.72;5095840;28;19989;-75
2021/09/23 05:31:47;;;;;;;;;;;;;;;-144.99;96.61;52411.41;5086458;28;20537;-75
2021/09/23 05:34:14;;;;;;;;;;;;;;;-144.99;96.81;52456.25;5080289;28;20367;-76
2021/09/23 05:36:42;;;;;;;;;;;;;;;-144.99;96.64;52419.56;5088396;28;20065;-74
2021/09/23 05:39:10;;;;;;;;;;;;;;;-144.99;96.57;52441.97;5089449;28;20050;-77
2021/09/23 05:41:41;;;;;;;;;;;;;;;-144.99;96.68;52431.78;5087043;28;20271;-75
2021/09/23 05:44:07;;;;;;;;;;;;;;;-144.99;96.61;52468.47;5087954;28;19984;-77
2021/09/23 05:46:35;;;;;;;;;;;;;;;-144.99;96.18;52427.72;5089479;28;19981;-75
2021/09/23 05:49:02;;;;;;;;;;;;;;;-144.99;96.21;52386.94;5090318;28;20021;-73
2021/09/23 05:51:28;;;;;;;;;;;;;;;-144.99;95.89;52427.72;5080238;28;19993;-74
2021/09/23 05:53:55;;;;;;;;;;;;;;;-144.99;96.76;52411.41;5080908;28;19971;-75
2021/09/23 05:56:23;;;;;;;;;;;;;;;-144.99;96.68;52431.78;5074784;28;19975;-75
2021/09/23 05:58:49;;;;;;;;;;;;;;;-144.99;96.85;52429.75;5084813;28;19985;-76
2021/09/23 06:01:15;;;;;;;;;;;;;;;-144.99;96.82;52431.78;5088582;28;19975;-75
2021/09/23 06:03:42;;;;;;;;;;;;;;;-144.99;96.61;52425.66;5086240;28;20020;-76
2021/09/23 06:06:08;;;;;;;;;;;;;;;-144.99;96.76;52419.56;5087295;28;19981;-76
2021/09/23 06:08:35;;;;;;;;;;;;;;;-144.99;96.61;52415.47;5088102;28;20011;-74
2021/09/23 06:11:01;;;;;;;;;;;;;;;-144.99;96.21;52454.22;5077017;28;20065;-75
2021/09/23 06:13:29;;;;;;;;;;;;;;;-144.99;95.95;52423.63;5074216;28;20001;-74
2021/09/23 06:15:55;;;;;;;;;;;;;;;-144.99;95.98;52413.44;5086307;28;20362;-75
2021/09/23 06:18:22;;;;;;;;;;;;;;;-144.99;95.84;52399.19;5080905;28;20000;-75
2021/09/23 06:20:49;;;;;;;;;;;;;;;-144.99;96.29;52439.94;5079875;28;19975;-77
2021/09/23 06:23:15;;;;;;;;;;;;;;;-144.99;96.57;52407.31;5080531;28;20348;-74
2021/09/23 06:25:42;;;;;;;;;;;;;;;-144.99;96.89;52399.19;5065600;28;19981;-75
2021/09/23 06:28:09;;;;;;;;;;;;;;;-144.99;97.14;52435.88;5086469;28;19981;-76
2021/09/23 06:30:36;;;;;;;;;;;;;;;-144.99;97.34;52395.09;5084903;28;19973;-75
2021/09/23 06:33:03;;;;;;;;;;;;;;;-144.99;97.46;52439.94;5087343;28;19993;-75
2021/09/23 06:35:30;;;;;;;;;;;;;;;-144.99;97.55;52388.97;5083501;28;19973;-75
2021/09/23 06:37:56;;;;;;;;;;;;;;;-144.99;97.90;52407.31;5083450;28;19992;-74
2021/09/23 06:40:23;;;;;;;;;;;;;;;-144.99;98.07;52427.72;5073245;28;19978;-75
2021/09/23 06:42:54;;;;;;;;;;;;;;;-144.99;98.02;52407.31;5103229;22;19989;-74
2021/09/23 06:45:20;;;;;;;;;;;;;;;-144.99;97.84;52448.09;5050088;28;19978;-74
2021/09/23 06:47:48;;;;;;;;;;;;;;;-144.99;98.06;52403.25;5055639;28;20251;-73
2021/09/23 06:50:15;;;;;;;;;;;;;;;-144.99;98.38;52448.09;5063640;28;20637;-74
2021/09/23 06:52:41;;;;;;;;;;;;;;;-144.99;98.38;52417.53;5064925;28;20012;-76
2021/09/23 06:55:09;;;;;;;;;;;;;;;-144.99;98.13;52399.19;5066054;28;19979;-76
2021/09/23 06:57:35;;;;;;;;;;;;;;;-144.99;98.09;52362.50;5064692;28;20005;-74
2021/09/23 07:00:04;;;;;;;;;;;;;;;-144.99;98.14;52431.78;5060796;28;20063;-75
2021/09/23 07:02:30;;;;;;;;;;;;;;;-144.99;98.33;52419.56;5055530;28;19995;-74
2021/09/23 07:04:58;;;;;;;;;;;;;;;-144.99;98.53;52407.31;5062287;28;19984;-74
2021/09/23 07:07:24;;;;;;;;;;;;;;;-144.99;98.52;52444.03;5064325;28;20659;-75
2021/09/23 07:09:51;;;;;;;;;;;;;;;-144.99;98.73;52391.03;5062592;28;19977;-74
2021/09/23 07:12:17;;;;;;;;;;;;;;;-144.99;98.34;52374.72;5060129;28;20499;-71
2021/09/23 07:14:44;;;;;;;;;;;;;;;-144.99;98.47;52403.25;5064818;28;19973;-76
2021/09/23 07:17:10;;;;;;;;;;;;;;;-144.99;97.77;52437.91;5059170;28;20096;-73
2021/09/23 07:19:37;;;;;;;;;;;;;;;-144.99;97.78;52395.09;5050103;28;19987;-75
2021/09/23 07:22:05;;;;;;;;;;;;;;;-144.99;97.72;52399.19;5062845;28;19977;-75
2021/09/23 07:24:32;;;;;;;;;;;;;;;-144.99;97.74;52407.31;5064950;28;20069;-74
2021/09/23 07:26:58;;;;;;;;;;;;;;;-144.99;97.36;52395.09;5055077;28;19979;-74
2021/09/23 07:29:25;;;;;;;;;;;;;;;-144.99;97.49;52384.91;5064178;28;19978;-74
2021/09/23 07:31:51;;;;;;;;;;;;;;;-144.99;97.41;52407.31;5061093;28;20060;-73
2021/09/23 07:34:18;;;;;;;;;;;;;;;-144.99;97.58;52419.56;5064340;28;20001;-72
2021/09/23 07:36:44;;;;;;;;;;;;;;;-144.99;97.29;52378.78;5064336;28;20457;-75
2021/09/23 07:39:12;;;;;;;;;;;;;;;-144.99;96.77;52374.72;5062089;28;19976;-73
2021/09/23 07:41:40;;;;;;;;;;;;;;;-144.99;96.61;52386.94;5054475;28;20078;-74
2021/09/23 07:44:06;;;;;;;;;;;;;;;-144.99;96.29;52395.09;5063565;28;20394;-73
2021/09/23 07:46:35;;;;;;;;;;;;;;;-144.99;96.40;52407.31;5065122;28;19982;-74
2021/09/23 07:49:01;;;;;;;;;;;;;;;-144.99;96.11;52386.94;5060454;28;19978;-73
2021/09/23 07:51:28;;;;;;;;;;;;;;;-144.99;96.24;52407.31;5051370;28;20437;-73
2021/09/23 07:53:54;;;;;;;;;;;;;;;-144.99;96.30;52374.72;5051110;28;20429;-71
2021/09/23 07:56:22;;;;;;;;;;;;;;;-144.99;96.03;52419.56;5056085;28;20087;-74
2021/09/23 07:58:48;;;;;;;;;;;;;;;-144.99;96.49;52386.94;5063032;28;20077;-74
2021/09/23 08:01:15;;;;;;;;;;;;;;;-144.99;96.87;52395.09;5064840;28;19977;-75
2021/09/23 08:03:42;;;;;;;;;;;;;;;-144.99;96.68;52382.88;5063921;28;20256;-72
2021/09/23 08:06:08;;;;;;;;;;;;;;;-144.99;96.85;52388.97;5062861;28;20062;-74
2021/09/23 08:08:34;;;;;;;;;;;;;;;-144.99;96.94;52415.47;5061172;28;20029;-73
2021/09/23 08:11:01;;;;;;;;;;;;;;;-144.99;97.09;52391.03;5062773;28;20821;-74
2021/09/23 08:13:29;;;;;;;;;;;;;;;-144.99;97.41;52382.88;5064533;28;20003;-74
2021/09/23 08:15:55;;;;;;;;;;;;;;;-144.99;97.03;52388.97;5063175;28;20112;-74
2021/09/23 08:18:22;;;;;;;;;;;;;;;-144.99;96.92;52370.63;5060030;28;20510;-73
2021/09/23 08:20:49;;;;;;;;;;;;;;;-144.99;96.76;52374.72;5063438;28;20497;-74
2021/09/23 08:23:15;;;;;;;;;;;;;;;-144.99;96.37;52419.56;5060765;28;20227;-74
2021/09/23 08:25:43;;;;;;;;;;;;;;;-144.99;96.49;52415.47;5043660;28;20062;-71
2021/09/23 08:28:11;;;;;;;;;;;;;;;-144.99;96.28;52399.19;5061776;28;19982;-73
2021/09/23 08:30:41;;;;;;;;;;;;;;;-144.99;96.23;52401.22;5057380;28;20380;-73
2021/09/23 08:33:10;;;;;;;;;;;;;;;-144.99;95.61;52360.44;5064205;28;20001;-74
2021/09/23 08:35:36;;;;;;;;;;;;;;;-144.99;95.40;52362.50;5063686;28;20102;-74
2021/09/23 08:38:03;;;;;;;;;;;;;;;-144.99;95.13;52358.41;5061278;28;19994;-72
2021/09/23 08:40:30;;;;;;;;;;;;;;;-144.99;95.28;52386.94;5055644;28;20293;-73
2021/09/23 08:42:56;;;;;;;;;;;;;;;-144.99;95.60;52397.13;5055973;28;20435;-73
2021/09/23 08:45:23;;;;;;;;;;;;;;;-144.99;95.83;52384.91;5061744;28;20019;-73
2021/09/23 08:47:50;;;;;;;;;;;;;;;-144.99;95.94;52399.19;5061527;28;19981;-75
2021/09/23 08:50:18;;;;;;;;;;;;;;;-144.99;95.86;52364.53;5060921;28;20065;-71
2021/09/23 08:52:44;;;;;;;;;;;;;;;-144.99;95.54;52399.19;5062263;28;20064;-74
2021/09/23 08:55:19;;;;;;;;;;;;;;;-144.99;95.32;52378.78;5062410;28;19989;-74
2021/09/23 08:57:46;;;;;;;;;;;;;;;-144.99;95.06;52382.88;5060850;28;20023;-73
2021/09/23 09:00:13;;;;;;;;;;;;;;;-144.99;95.10;52358.41;5054348;28;20573;-74
2021/09/23 09:02:40;;;;;;;;;;;;;;;-144.99;95.11;52380.84;5056931;28;19988;-71
2021/09/23 09:05:16;;;;;;;;;;;;;;;-144.99;95.26;52366.56;5054675;28;19951;-71
2021/09/23 09:07:43;;;;;;;;;;;;;;;-144.99;94.79;52378.78;5058173;28;20051;-73
2021/09/23 09:10:10;;;;;;;;;;;;;;;-144.99;94.76;52378.78;5061564;28;19970;-72
2021/09/23 09:12:38;;;;;;;;;;;;;;;-144.99;94.76;52342.09;5056820;28;20367;-73
2021/09/23 09:15:05;;;;;;;;;;;;;;;-144.99;94.59;52386.94;5063763;28;19989;-74
2021/09/23 09:17:34;;;;;;;;;;;;;;;-144.99;94.73;52380.84;5057929;28;20077;-74
2021/09/23 09:20:02;;;;;;;;;;;;;;;-144.99;94.44;52382.88;5061928;28;20014;-73
2021/09/23 09:22:31;;;;;;;;;;;;;;;-144.99;94.83;52374.72;5053705;28;20072;-74
2021/09/23 09:24:59;;;;;;;;;;;;;;;-144.99;94.51;52407.31;5072778;28;20076;-71
2021/09/23 09:27:27;;;;;;;;;;;;;;;-144.99;94.36;52378.78;5061660;28;19988;-74
2021/09/23 09:29:54;;;;;;;;;;;;;;;-144.99;94.49;52384.91;5055842;28;20033;-73
2021/09/23 09:32:33;;;;;;;;;;;;;;;-144.99;94.90;52419.56;5062250;28;20000;-76
2021/09/23 09:34:59;;;;;;;;;;;;;;;-144.99;94.92;52374.72;5057363;28;20005;-73
2021/09/23 09:37:26;;;;;;;;;;;;;;;-144.99;95.26;52399.19;5063808;28;19988;-73
2021/09/23 09:39:57;;;;;;;;;;;;;;;-144.99;95.24;52380.84;5064262;28;19989;-75
2021/09/23 09:42:26;;;;;;;;;;;;;;;-144.99;95.73;52374.72;5058607;28;20012;-75
2021/09/23 09:44:53;;;;;;;;;;;;;;;-144.99;95.51;52366.56;5064892;28;20068;-74
2021/09/23 09:47:26;;;;;;;;;;;;;;;-144.99;95.27;52448.09;5066048;28;20014;-71
2021/09/23 09:49:52;;;;;;;;;;;;;;;-144.99;95.23;52407.31;5063418;28;19978;-73
2021/09/23 09:52:28;;;;;;;;;;;;;;;-144.99;94.69;52366.56;5054677;28;20001;-74
2021/09/23 09:55:00;;;;;;;;;;;;;;;-144.99;95.08;52378.78;5066031;28;19985;-76
2021/09/23 09:57:28;;;;;;;;;;;;;;;-144.99;94.37;52358.41;5064616;28;19993;-75
2021/09/23 09:59:54;;;;;;;;;;;;;;;-144.99;93.78;52391.03;5064665;28;19998;-76
2021/09/23 10:02:21;;;;;;;;;;;;;;;-144.99;93.79;52368.59;5063085;28;19995;-76
2021/09/23 10:04:47;;;;;;;;;;;;;;;-144.99;93.34;52350.25;5061448;28;20277;-73
2021/09/23 10:07:14;;;;;;;;;;;;;;;-144.99;93.05;52386.94;5066121;28;19993;-76
2021/09/23 10:09:40;;;;;;;;;;;;;;;-144.99;93.02;52378.78;5065783;28;20454;-74
2021/09/23 10:12:09;;;;;;;;;;;;;;;-144.99;93.15;52395.09;5059530;28;19974;-73
2021/09/23 10:14:36;;;;;;;;;;;;;;;-144.99;92.56;52358.41;5065374;28;19979;-74
2021/09/23 10:17:03;;;;;;;;;;;;;;;-144.99;92.86;52407.31;5062594;28;19979;-72
2021/09/23 10:19:29;;;;;;;;;;;;;;;-144.99;92.63;52413.44;5065537;28;20500;-72
2021/09/23 10:21:56;;;;;;;;;;;;;;;-144.99;92.59;52395.09;5058959;28;19971;-73
2021/09/23 10:24:23;;;;;;;;;;;;;;;-144.99;92.20;52370.63;5063843;28;19975;-73
2021/09/23 10:26:50;;;;;;;;;;;;;;;-144.99;92.23;52427.72;5053970;28;20532;-74
2021/09/23 10:29:19;;;;;;;;;;;;;;;-144.99;91.80;52382.88;5066245;28;19989;-72
2021/09/23 10:31:45;;;;;;;;;;;;;;;-144.99;91.79;52386.94;5064039;28;20009;-76
2021/09/23 10:34:12;;;;;;;;;;;;;;;-144.99;91.84;52391.03;5058481;28;20098;-73
2021/09/23 10:36:39;;;;;;;;;;;;;;;-144.99;92.10;52366.56;5056422;28;20046;-72
2021/09/23 10:39:07;;;;;;;;;;;;;;;-144.99;91.59;52370.63;5065300;28;20000;-73
2021/09/23 10:41:34;;;;;;;;;;;;;;;-144.99;91.84;52409.38;5063836;28;19983;-76
2021/09/23 10:44:00;;;;;;;;;;;;;;;-144.99;91.60;52384.91;5059824;28;20004;-73
2021/09/23 10:46:28;;;;;;;;;;;;;;;-144.99;91.96;52407.31;5065530;28;19981;-75
2021/09/23 10:48:55;;;;;;;;;;;;;;;-144.99;91.58;52403.25;5064041;28;20180;-76
2021/09/23 10:51:22;;;;;;;;;;;;;;;-144.99;91.73;52441.97;5063561;28;20527;-76
2021/09/23 10:53:50;;;;;;;;;;;;;;;-144.99;91.88;52380.84;5054875;28;20377;-74
2021/09/23 10:56:19;;;;;;;;;;;;;;;-144.99;91.51;52399.19;5059443;28;20002;-73
2021/09/23 10:58:46;;;;;;;;;;;;;;;-144.99;91.67;52382.88;5051612;28;20005;-74
2021/09/23 11:01:20;;;;;;;;;;;;;;;-144.99;91.42;52399.19;5065862;28;19989;-75
2021/09/23 11:03:49;;;;;;;;;;;;;;;-144.99;91.39;52378.78;5056293;28;19993;-77
2021/09/23 11:06:16;;;;;;;;;;;;;;;-144.99;91.35;52348.22;5059257;28;20397;-75
2021/09/23 11:08:43;;;;;;;;;;;;;;;-144.99;91.68;52419.56;5061541;28;19981;-75
2021/09/23 11:11:09;;;;;;;;;;;;;;;-144.99;91.42;52366.56;5063085;28;19983;-75
2021/09/23 11:13:37;;;;;;;;;;;;;;;-144.99;91.32;52356.38;5060683;28;19997;-72
2021/09/23 11:16:04;;;;;;;;;;;;;;;-144.99;91.60;52374.72;5063099;28;19987;-75
2021/09/23 11:18:31;;;;;;;;;;;;;;;-144.99;91.50;52372.69;5060597;28;20001;-75
2021/09/23 11:21:00;;;;;;;;;;;;;;;-144.99;91.15;52399.19;5065510;28;20063;-75
2021/09/23 11:23:27;;;;;;;;;;;;;;;-144.99;91.18;52380.84;5056789;28;20072;-74
2021/09/23 11:25:55;;;;;;;;;;;;;;;-144.99;91.35;52370.63;5059150;28;20482;-74
2021/09/23 11:28:22;;;;;;;;;;;;;;;-144.99;91.53;52386.94;5064946;28;20098;-74
2021/09/23 11:30:50;;;;;;;;;;;;;;;-144.99;91.28;52386.94;5064440;28;20067;-74
2021/09/23 11:33:17;;;;;;;;;;;;;;;-144.99;91.79;52386.94;5065136;28;20052;-74
2021/09/23 11:35:45;;;;;;;;;;;;;;;-144.99;91.73;52352.28;5061379;28;19975;-74
2021/09/23 11:38:15;;;;;;;;;;;;;;;-144.99;91.74;52403.25;5064741;28;20006;-74
2021/09/23 11:40:42;;;;;;;;;;;;;;;-144.99;92.29;52374.72;5063662;28;19982;-72
2021/09/23 11:43:10;;;;;;;;;;;;;;;-144.99;92.45;52374.72;5064450;28;20021;-73
2021/09/23 11:45:38;;;;;;;;;;;;;;;-144.99;92.32;52380.84;5055438;28;20061;-75
2021/09/23 11:48:08;;;;;;;;;;;;;;;-144.99;92.63;52399.19;5065132;28;19998;-75
2021/09/23 11:50:35;;;;;;;;;;;;;;;-144.99;93.07;52391.03;5058009;28;19975;-74
2021/09/23 11:53:04;;;;;;;;;;;;;;;-144.99;93.22;52386.94;5056772;28;19995;-72
2021/09/23 11:55:32;;;;;;;;;;;;;;;-144.99;93.40;52407.31;5061480;28;19978;-72
2021/09/23 11:58:04;;;;;;;;;;;;;;;-144.99;94.73;52374.72;5061928;28;20009;-73
2021/09/23 12:00:31;;;;;;;;;;;;;;;-144.99;95.82;52427.72;5059629;28;20013;-72
2021/09/23 12:02:57;;;;;;;;;;;;;;;-144.99;96.16;52386.94;5058978;28;19994;-75
2021/09/23 12:05:28;;;;;;;;;;;;;;;-144.99;95.83;52403.25;5060172;28;19999;-72
2021/09/23 12:07:55;;;;;;;;;;;;;;;-144.99;95.86;52362.50;5059446;28;20089;-72
2021/09/23 12:10:22;;;;;;;;;;;;;;;-144.99;96.54;52411.41;5053539;28;19971;-72
2021/09/23 12:12:56;;;;;;;;;;;;;;;-144.99;97.28;52358.41;5059452;28;19998;-74
2021/09/23 12:15:22;;;;;;;;;;;;;;;-144.99;99.55;52366.56;5061358;28;19976;-74
2021/09/23 12:17:53;;;;;;;;;;;;;;;-144.99;100.00;52397.13;5054328;28;20368;-73
2021/09/23 12:20:22;;;;;;;;;;;;;;;-144.99;100.00;52395.09;5054469;28;19999;-74
2021/09/23 12:22:48;;;;;;;;;;;;;;;-144.99;100.00;52386.94;5063731;28;20424;-75